Time;durP1;ratioP1;P1;durP2;ratioP2;P2;SDS_P1;SDS_P2;PMS_P1;PMS_P2;Temp;Humidity;BMP_temperature;BMP_pressure;BME280_temperature;BME280_humidity;BME280_pressure;Samples;Min_cycle;Max_cycle;Signal;HPM_P1;HPM_P2
2023/07/23 00:01:10;;;;;;;1.58;1.45;;;;;;;21.39;52.51;100857.63;5010110;28;20065;-59
2023/07/23 00:03:35;;;;;;;2.33;1.33;;;;;;;21.39;52.42;100854.91;5008943;28;20038;-59
2023/07/23 00:06:01;;;;;;;1.90;1.30;;;;;;;21.39;52.85;100844.06;5011254;28;20041;-59
2023/07/23 00:08:26;;;;;;;1.60;1.42;;;;;;;21.39;52.78;100848.66;5007138;28;20038;-59
2023/07/23 00:10:57;;;;;;;1.52;1.30;;;;;;;21.38;52.71;100836.97;5010386;28;20109;-60
2023/07/23 00:13:23;;;;;;;2.72;1.75;;;;;;;21.38;52.59;100847.81;5002658;28;20064;-59
2023/07/23 00:15:49;;;;;;;1.90;1.55;;;;;;;21.38;52.92;100834.28;5007531;28;20471;-59
2023/07/23 00:18:14;;;;;;;1.85;1.40;;;;;;;21.38;52.95;100831.56;5004535;28;20034;-59
2023/07/23 00:20:39;;;;;;;1.58;1.40;;;;;;;21.39;52.49;100832.41;5008895;28;20462;-59
2023/07/23 00:23:05;;;;;;;2.00;1.65;;;;;;;21.37;52.38;100823.59;4993453;28;20087;-59
2023/07/23 00:25:30;;;;;;;1.67;1.27;;;;;;;21.37;52.92;100819.03;5007398;28;20060;-59
2023/07/23 00:27:55;;;;;;;2.33;1.48;;;;;;;21.37;52.87;100816.31;5009306;28;20073;-59
2023/07/23 00:30:21;;;;;;;1.42;1.33;;;;;;;21.37;52.44;100813.59;5009088;28;20041;-59
2023/07/23 00:32:46;;;;;;;2.13;1.40;;;;;;;21.38;52.68;100807.19;5010244;28;20026;-59
2023/07/23 00:35:12;;;;;;;2.22;1.70;;;;;;;21.36;52.55;100801.09;4987460;28;20092;-59
2023/07/23 00:37:37;;;;;;;1.40;1.30;;;;;;;21.37;52.55;100793.81;5006624;28;20046;-59
2023/07/23 00:40:03;;;;;;;1.55;1.30;;;;;;;21.36;52.86;100790.25;5005241;28;20034;-59
2023/07/23 00:42:29;;;;;;;2.75;1.35;;;;;;;21.36;52.55;100779.44;5005926;28;20041;-59
2023/07/23 00:44:54;;;;;;;1.17;1.10;;;;;;;21.36;52.44;100784.84;4992840;28;20100;-60
2023/07/23 00:47:21;;;;;;;1.80;1.52;;;;;;;21.36;52.42;100782.13;5006612;28;20451;-59
2023/07/23 00:49:46;;;;;;;1.50;1.40;;;;;;;21.35;53.00;100775.00;5007413;28;20038;-60
2023/07/23 00:52:12;;;;;;;1.55;1.45;;;;;;;21.35;52.92;100775.00;5010622;28;20088;-59
2023/07/23 00:54:38;;;;;;;2.58;1.58;;;;;;;21.35;52.79;100766.88;5006861;28;20045;-59
2023/07/23 00:57:05;;;;;;;1.92;1.52;;;;;;;21.35;52.93;100766.88;5002475;28;20038;-59
2023/07/23 00:59:32;;;;;;;1.73;1.40;;;;;;;21.35;52.97;100766.88;5006143;28;20513;-59
2023/07/23 01:01:58;;;;;;;2.35;1.50;;;;;;;21.35;52.72;100761.47;5008667;28;20099;-59
2023/07/23 01:04:24;;;;;;;1.50;1.30;;;;;;;21.35;52.62;100757.94;5007983;28;20042;-59
2023/07/23 01:06:50;;;;;;;1.48;1.38;;;;;;;21.34;52.68;100751.63;5007150;28;20033;-59
2023/07/23 01:09:18;;;;;;;1.98;1.50;;;;;;;21.35;52.87;100744.38;5007682;28;20034;-59
2023/07/23 01:11:43;;;;;;;1.40;1.30;;;;;;;21.34;52.94;100743.50;5005713;28;20045;-59
2023/07/23 01:14:09;;;;;;;1.48;1.27;;;;;;;21.33;52.58;100736.41;5006698;28;20379;-59
2023/07/23 01:16:36;;;;;;;2.17;1.25;;;;;;;21.34;52.65;100731.84;5003611;28;20034;-59
2023/07/23 01:19:03;;;;;;;2.70;1.35;;;;;;;21.33;52.69;100728.28;5004591;28;20084;-59
2023/07/23 01:21:28;;;;;;;1.75;1.42;;;;;;;21.32;52.40;100726.59;5009340;28;20042;-59
2023/07/23 01:23:54;;;;;;;1.40;1.30;;;;;;;21.33;52.73;100720.19;5007899;28;20137;-59
2023/07/23 01:26:20;;;;;;;1.95;1.65;;;;;;;21.33;52.99;100722.03;5008776;28;20038;-60
2023/07/23 01:28:45;;;;;;;2.15;1.40;;;;;;;21.33;52.64;100712.03;5009236;28;20033;-59
2023/07/23 01:31:12;;;;;;;1.65;1.55;;;;;;;21.33;52.74;100708.50;5007425;28;20041;-59
2023/07/23 01:33:41;;;;;;;1.40;1.30;;;;;;;21.32;52.87;100707.63;5004894;28;20112;-59
2023/07/23 01:36:08;;;;;;;1.45;1.20;;;;;;;21.32;52.38;100704.94;4990617;28;20164;-59
2023/07/23 01:38:34;;;;;;;1.60;1.30;;;;;;;21.32;52.96;100698.66;5005611;28;20068;-59
2023/07/23 01:41:01;;;;;;;1.10;1.00;;;;;;;21.32;52.44;100695.97;5007402;28;20129;-59
2023/07/23 01:43:27;;;;;;;1.10;0.90;;;;;;;21.32;52.57;100691.38;5006301;28;20030;-60
2023/07/23 01:45:53;;;;;;;1.45;1.20;;;;;;;21.31;52.85;100681.59;5007004;28;20042;-59
2023/07/23 01:48:21;;;;;;;1.48;1.30;;;;;;;21.32;52.87;100687.84;5008525;28;20037;-59
2023/07/23 01:50:46;;;;;;;1.40;1.30;;;;;;;21.31;52.47;100678.03;5006866;28;20041;-59
2023/07/23 01:53:11;;;;;;;2.80;1.33;;;;;;;21.31;52.56;100684.28;5005946;28;20068;-60
2023/07/23 01:55:37;;;;;;;2.05;1.63;;;;;;;21.31;52.37;100673.47;5003424;28;20056;-59
2023/07/23 01:58:02;;;;;;;1.35;1.13;;;;;;;21.31;52.64;100668.03;5005955;28;20038;-59
2023/07/23 02:00:27;;;;;;;1.55;1.38;;;;;;;21.31;52.52;100665.34;5008029;28;20033;-60
2023/07/23 02:02:53;;;;;;;1.67;1.33;;;;;;;21.31;52.67;100667.22;5007752;28;20100;-59
2023/07/23 02:05:19;;;;;;;1.75;1.52;;;;;;;21.30;52.54;100660.91;5008495;28;20033;-60
2023/07/23 02:07:44;;;;;;;1.30;1.20;;;;;;;21.30;52.66;100652.81;5006467;28;20041;-60
2023/07/23 02:10:11;;;;;;;1.40;1.30;;;;;;;21.29;53.01;100648.41;5005094;28;20041;-59
2023/07/23 02:12:37;;;;;;;1.90;1.63;;;;;;;21.30;52.37;100652.81;5005333;28;20046;-60
2023/07/23 02:15:03;;;;;;;1.73;1.17;;;;;;;21.29;52.83;100648.41;5003506;28;20037;-59
2023/07/23 02:17:28;;;;;;;2.22;1.60;;;;;;;21.28;52.81;100641.28;5004556;28;20050;-59
2023/07/23 02:19:54;;;;;;;1.50;1.40;;;;;;;21.28;52.83;100635.88;5000824;28;20097;-59
2023/07/23 02:22:19;;;;;;;1.75;1.42;;;;;;;21.27;52.70;100629.63;5008661;28;20546;-59
2023/07/23 02:24:44;;;;;;;1.77;1.25;;;;;;;21.28;52.84;100630.47;5007984;28;20392;-59
2023/07/23 02:27:12;;;;;;;1.40;1.30;;;;;;;21.27;52.52;100621.50;4987760;28;20037;-59
2023/07/23 02:29:38;;;;;;;1.85;1.33;;;;;;;21.28;52.81;100625.06;5006975;28;20467;-59
2023/07/23 02:32:05;;;;;;;2.10;1.48;;;;;;;21.26;52.38;100621.66;5004226;28;20062;-59
2023/07/23 02:34:31;;;;;;;1.75;1.13;;;;;;;21.26;52.56;100616.25;5006329;28;20038;-59
2023/07/23 02:36:56;;;;;;;1.40;1.20;;;;;;;21.26;52.36;100613.53;5005751;28;20093;-59
2023/07/23 02:39:22;;;;;;;1.70;1.33;;;;;;;21.27;52.41;100620.66;5001897;28;20041;-59
2023/07/23 02:41:47;;;;;;;2.33;1.42;;;;;;;21.27;52.68;100623.38;5006228;28;20111;-59
2023/07/23 02:44:12;;;;;;;2.65;1.60;;;;;;;21.26;52.40;100619.81;5007387;28;20061;-59
2023/07/23 02:46:38;;;;;;;1.40;1.30;;;;;;;21.25;52.49;100615.41;5008427;28;20550;-59
2023/07/23 02:49:04;;;;;;;1.25;1.15;;;;;;;21.25;52.43;100607.28;5002808;28;20084;-59
2023/07/23 02:51:30;;;;;;;1.58;1.48;;;;;;;21.25;52.64;100603.75;5006004;28;20038;-60
2023/07/23 02:53:56;;;;;;;2.45;1.35;;;;;;;21.25;52.35;100604.59;5002046;28;20037;-60
2023/07/23 02:56:21;;;;;;;1.58;1.45;;;;;;;21.25;52.37;100601.88;5003994;28;20045;-59
2023/07/23 02:58:47;;;;;;;1.92;1.60;;;;;;;21.25;52.37;100596.47;5004438;28;20061;-60
2023/07/23 03:01:12;;;;;;;1.98;1.20;;;;;;;21.24;52.87;100597.47;5008773;28;20030;-59
2023/07/23 03:03:37;;;;;;;2.05;1.58;;;;;;;21.25;52.76;100595.63;5006775;28;20029;-59
2023/07/23 03:06:06;;;;;;;1.52;1.42;;;;;;;21.25;52.62;100587.50;5003918;28;20072;-59
2023/07/23 03:08:31;;;;;;;1.65;1.55;;;;;;;21.24;52.36;100594.75;5004510;28;20617;-59
2023/07/23 03:10:56;;;;;;;1.70;1.30;;;;;;;21.24;52.48;100591.22;5002188;28;20037;-59
2023/07/23 03:13:22;;;;;;;2.28;1.55;;;;;;;21.24;52.49;100583.09;5001939;28;20038;-59
2023/07/23 03:15:47;;;;;;;1.83;1.35;;;;;;;21.24;52.24;100580.38;5007960;28;20523;-59
2023/07/23 03:18:12;;;;;;;1.90;1.80;;;;;;;21.23;52.26;100593.09;5006380;28;20077;-59
2023/07/23 03:20:38;;;;;;;1.60;1.50;;;;;;;21.23;52.33;100579.56;5006990;28;20483;-59
2023/07/23 03:23:03;;;;;;;1.55;1.30;;;;;;;21.24;52.25;100577.69;5008015;28;20038;-59
2023/07/23 03:25:29;;;;;;;1.50;1.40;;;;;;;21.23;52.56;100578.72;5004492;28;20141;-59
2023/07/23 03:27:59;;;;;;;1.50;1.40;;;;;;;21.23;52.17;100582.25;5003808;28;20522;-59
2023/07/23 03:30:28;;;;;;;1.73;1.63;;;;;;;21.23;52.63;100578.72;5002295;28;20061;-59
2023/07/23 03:32:54;;;;;;;1.60;1.42;;;;;;;21.22;52.14;100582.44;5003667;28;20045;-59
2023/07/23 03:35:21;;;;;;;1.40;1.30;;;;;;;21.22;52.33;100579.72;5007015;28;20038;-59
2023/07/23 03:37:46;;;;;;;1.75;1.63;;;;;;;21.22;52.68;100579.72;5007972;28;20083;-60
2023/07/23 03:40:12;;;;;;;2.22;1.60;;;;;;;21.21;52.47;100570.75;5005489;28;20462;-59
2023/07/23 03:42:37;;;;;;;1.75;1.65;;;;;;;21.21;52.69;100569.88;5007898;28;20407;-59
2023/07/23 03:45:04;;;;;;;1.55;1.40;;;;;;;21.21;52.60;100570.75;5004112;28;20040;-59
2023/07/23 03:47:29;;;;;;;2.35;1.45;;;;;;;21.21;52.14;100578.00;5001898;28;20383;-59
2023/07/23 03:49:55;;;;;;;1.60;1.38;;;;;;;21.20;52.18;100565.50;5002792;28;20026;-59
2023/07/23 03:52:21;;;;;;;1.98;1.70;;;;;;;21.21;52.54;100576.19;5007464;28;20041;-59
2023/07/23 03:54:47;;;;;;;1.55;1.45;;;;;;;21.20;52.21;100579.88;5010429;28;20037;-59
2023/07/23 03:57:12;;;;;;;1.67;1.50;;;;;;;21.20;52.38;100568.22;5010102;28;20046;-59
2023/07/23 03:59:43;;;;;;;2.22;1.63;;;;;;;21.20;52.23;100574.47;5008637;28;20034;-59
2023/07/23 04:02:09;;;;;;;1.85;1.55;;;;;;;21.21;52.22;100576.19;5007226;28;20045;-59
2023/07/23 04:04:35;;;;;;;1.50;1.40;;;;;;;21.20;52.28;100570.94;5007386;28;20029;-59
2023/07/23 04:07:01;;;;;;;2.53;1.92;;;;;;;21.20;52.61;100576.34;5011203;28;20065;-59
2023/07/23 04:09:26;;;;;;;1.95;1.60;;;;;;;21.20;52.65;100570.94;5005041;28;20094;-59
2023/07/23 04:11:51;;;;;;;1.58;1.48;;;;;;;21.20;52.22;100579.06;5006329;28;20566;-59
2023/07/23 04:14:17;;;;;;;1.60;1.40;;;;;;;21.19;52.59;100574.63;5007238;28;20399;-59
2023/07/23 04:16:42;;;;;;;1.52;1.42;;;;;;;21.18;52.27;100576.50;5010919;28;20048;-59
2023/07/23 04:19:07;;;;;;;1.90;1.70;;;;;;;21.19;52.26;100582.75;5010285;28;20471;-59
2023/07/23 04:21:33;;;;;;;2.22;1.40;;;;;;;21.17;52.13;100580.25;5008211;28;20030;-59
2023/07/23 04:24:00;;;;;;;1.95;1.70;;;;;;;21.17;52.05;100574.84;5008544;28;20463;-59
2023/07/23 04:26:28;;;;;;;1.42;1.33;;;;;;;21.17;52.03;100590.22;5006264;28;20030;-59
2023/07/23 04:28:53;;;;;;;2.22;1.75;;;;;;;21.17;52.50;100580.25;5002972;28;20060;-59
2023/07/23 04:31:19;;;;;;;1.60;1.50;;;;;;;21.17;52.13;100579.38;5010217;28;20034;-59
2023/07/23 04:33:45;;;;;;;1.98;1.75;;;;;;;21.18;52.06;100586.50;5010323;28;20041;-59
2023/07/23 04:36:12;;;;;;;1.38;1.27;;;;;;;21.16;52.41;100578.56;5009613;28;20038;-59
2023/07/23 04:38:38;;;;;;;2.00;1.77;;;;;;;21.16;52.06;100583.13;5010848;28;20691;-59
2023/07/23 04:41:04;;;;;;;1.70;1.60;;;;;;;21.16;52.53;100581.25;5007749;28;20025;-59
2023/07/23 04:43:29;;;;;;;1.75;1.65;;;;;;;21.16;52.49;100577.72;5005937;28;20068;-59
2023/07/23 04:45:55;;;;;;;1.67;1.50;;;;;;;21.16;52.07;100577.72;5007156;28;20061;-59
2023/07/23 04:48:20;;;;;;;1.95;1.55;;;;;;;21.16;52.14;100580.41;5003443;28;20444;-59
2023/07/23 04:50:55;;;;;;;2.00;1.55;;;;;;;21.16;52.11;100577.72;5005675;28;20055;-59
2023/07/23 04:53:20;;;;;;;2.22;1.30;;;;;;;21.15;52.35;100576.00;5013896;28;20033;-59
2023/07/23 04:55:49;;;;;;;1.70;1.45;;;;;;;21.15;52.12;100573.31;5009382;28;20065;-59
2023/07/23 04:58:14;;;;;;;1.30;1.20;;;;;;;21.15;52.22;100576.88;5008435;28;20061;-59
2023/07/23 05:00:40;;;;;;;1.92;1.45;;;;;;;21.14;52.07;100564.34;5007321;28;20180;-59
2023/07/23 05:03:05;;;;;;;2.65;1.85;;;;;;;21.15;52.02;100570.59;5006407;28;20038;-59
2023/07/23 05:05:31;;;;;;;2.22;1.60;;;;;;;21.14;52.42;100568.91;5005324;28;20092;-59
2023/07/23 05:07:56;;;;;;;1.30;1.20;;;;;;;21.15;52.49;100570.59;5006942;28;20555;-59
2023/07/23 05:10:22;;;;;;;1.65;1.27;;;;;;;21.14;52.20;100566.22;5003265;28;20133;-58
2023/07/23 05:12:47;;;;;;;1.40;1.13;;;;;;;21.14;52.05;100563.50;5005039;28;20115;-59
2023/07/23 05:15:13;;;;;;;1.98;1.70;;;;;;;21.13;52.39;100568.06;5011795;28;20046;-59
2023/07/23 05:17:40;;;;;;;1.98;1.67;;;;;;;21.13;52.02;100572.63;5008747;28;20042;-59
2023/07/23 05:20:06;;;;;;;1.60;1.45;;;;;;;21.13;52.42;100578.06;4990404;28;20037;-59
2023/07/23 05:22:41;;;;;;;1.70;1.60;;;;;;;21.13;52.49;100572.63;5006889;28;20129;-59
2023/07/23 05:25:08;;;;;;;1.60;1.40;;;;;;;21.13;52.34;100580.75;5005210;28;20121;-59
2023/07/23 05:27:34;;;;;;;1.67;1.35;;;;;;;21.12;52.14;100582.63;5007885;28;20468;-59
2023/07/23 05:30:00;;;;;;;1.77;1.45;;;;;;;21.12;52.01;100579.09;4990729;28;20108;-59
2023/07/23 05:32:25;;;;;;;1.45;1.35;;;;;;;21.13;52.12;100572.63;5008237;28;20038;-59
2023/07/23 05:34:51;;;;;;;1.60;1.17;;;;;;;21.12;52.00;100574.50;5009751;28;20026;-59
2023/07/23 05:37:16;;;;;;;2.15;1.50;;;;;;;21.12;52.27;100576.38;5009226;28;20025;-59
2023/07/23 05:39:41;;;;;;;1.70;1.58;;;;;;;21.12;52.43;100568.25;5006204;28;20099;-58
2023/07/23 05:42:07;;;;;;;1.73;1.40;;;;;;;21.11;52.32;100574.69;5005790;28;20149;-59
2023/07/23 05:44:32;;;;;;;2.20;1.60;;;;;;;21.12;52.10;100570.97;5003975;28;20127;-59
2023/07/23 05:46:58;;;;;;;1.73;1.58;;;;;;;21.12;52.04;100570.97;5005631;28;20034;-59
2023/07/23 05:49:24;;;;;;;1.50;1.40;;;;;;;21.12;52.09;100570.97;5001937;28;20045;-59
2023/07/23 05:51:50;;;;;;;2.15;1.85;;;;;;;21.11;52.02;100571.97;5006698;28;20033;-60
2023/07/23 05:54:16;;;;;;;2.00;1.80;;;;;;;21.11;52.08;100569.25;5006912;28;20042;-59
2023/07/23 05:56:41;;;;;;;1.98;1.85;;;;;;;21.12;52.01;100581.78;5005274;28;20119;-59
2023/07/23 05:59:06;;;;;;;1.50;1.40;;;;;;;21.12;52.04;100565.53;5006437;28;20048;-59
2023/07/23 06:01:32;;;;;;;1.60;1.50;;;;;;;21.11;52.38;100569.25;5002078;28;20034;-58
2023/07/23 06:03:57;;;;;;;1.70;1.52;;;;;;;21.11;51.85;100569.25;5004930;28;20072;-59
2023/07/23 06:06:23;;;;;;;2.75;1.63;;;;;;;21.10;51.97;100557.59;5002755;28;20033;-59
2023/07/23 06:08:48;;;;;;;1.52;1.40;;;;;;;21.11;52.00;100570.09;5008926;28;20215;-59
2023/07/23 06:11:13;;;;;;;1.92;1.73;;;;;;;21.11;52.38;100561.13;4991869;28;20446;-59
2023/07/23 06:13:39;;;;;;;1.30;1.20;;;;;;;21.09;52.36;100567.59;5006515;28;20032;-59
2023/07/23 06:16:04;;;;;;;1.75;1.40;;;;;;;21.10;52.01;100571.13;5007004;28;20042;-59
2023/07/23 06:18:29;;;;;;;2.17;1.50;;;;;;;21.10;52.44;100579.25;5004739;28;20112;-58
2023/07/23 06:20:55;;;;;;;1.92;1.52;;;;;;;21.09;52.27;100573.00;5001016;28;20437;-58
2023/07/23 06:23:20;;;;;;;1.70;1.60;;;;;;;21.10;52.39;100576.53;5008230;28;20038;-59
2023/07/23 06:25:46;;;;;;;2.00;1.58;;;;;;;21.11;52.52;100582.78;5007947;28;20074;-58
2023/07/23 06:28:11;;;;;;;1.52;1.42;;;;;;;21.10;52.07;100581.97;5001569;28;20121;-59
2023/07/23 06:30:36;;;;;;;2.20;1.98;;;;;;;21.09;51.94;100578.41;5008483;28;20026;-58
2023/07/23 06:33:02;;;;;;;2.72;1.73;;;;;;;21.09;52.30;100572.13;5007298;28;20104;-59
2023/07/23 06:35:27;;;;;;;1.98;1.52;;;;;;;21.09;52.45;100582.97;5006192;28;20066;-59
2023/07/23 06:37:52;;;;;;;1.67;1.58;;;;;;;21.09;52.03;100589.25;5006778;28;20043;-59
2023/07/23 06:40:18;;;;;;;2.08;1.80;;;;;;;21.08;52.41;100582.13;5004394;28;20042;-59
2023/07/23 06:42:43;;;;;;;3.05;1.63;;;;;;;21.08;52.17;100587.53;5006354;28;20030;-59
2023/07/23 06:45:10;;;;;;;1.50;1.40;;;;;;;21.08;52.30;100592.94;5001364;28;20065;-59
2023/07/23 06:47:36;;;;;;;2.00;1.50;;;;;;;21.07;51.99;100591.25;5007219;28;20068;-59
2023/07/23 06:50:02;;;;;;;1.80;1.70;;;;;;;21.08;52.33;100603.78;4989817;28;20642;-59
2023/07/23 06:52:27;;;;;;;1.65;1.55;;;;;;;21.08;52.39;100600.25;5005468;28;20125;-59
2023/07/23 06:54:53;;;;;;;1.63;1.40;;;;;;;21.08;52.40;100606.50;4986058;28;20458;-59
2023/07/23 06:57:18;;;;;;;2.00;1.55;;;;;;;21.08;52.41;100602.94;4994417;28;20361;-59
2023/07/23 06:59:45;;;;;;;1.73;1.42;;;;;;;21.08;52.23;100598.38;4999413;28;20037;-59
2023/07/23 07:02:11;;;;;;;2.88;1.65;;;;;;;21.07;52.48;100603.94;4989707;28;20248;-60
2023/07/23 07:04:37;;;;;;;2.05;1.80;;;;;;;21.08;52.24;100608.38;4987238;28;20058;-59
2023/07/23 07:07:03;;;;;;;2.45;1.40;;;;;;;21.07;52.03;100612.91;4991056;28;20041;-60
2023/07/23 07:09:28;;;;;;;2.10;1.55;;;;;;;21.07;52.42;100604.78;4990045;28;20679;-59
2023/07/23 07:11:54;;;;;;;1.70;1.60;;;;;;;21.08;52.47;100613.78;4991426;28;20499;-59
2023/07/23 07:14:20;;;;;;;2.55;1.95;;;;;;;21.07;52.05;100615.63;4988714;28;20050;-59
2023/07/23 07:16:45;;;;;;;1.60;1.50;;;;;;;21.07;52.21;100612.91;4989311;28;20440;-59
2023/07/23 07:19:10;;;;;;;1.80;1.70;;;;;;;21.07;52.06;100612.91;4987251;28;20030;-59
2023/07/23 07:21:36;;;;;;;2.45;1.70;;;;;;;21.07;52.56;100607.50;4990388;28;20022;-59
2023/07/23 07:24:02;;;;;;;2.55;1.60;;;;;;;21.08;52.43;100605.66;4990956;28;20051;-59
2023/07/23 07:26:28;;;;;;;1.33;1.23;;;;;;;21.07;52.58;100607.50;4991181;28;20085;-59
2023/07/23 07:28:53;;;;;;;2.33;1.80;;;;;;;21.07;52.47;100606.66;4995344;28;20741;-60
2023/07/23 07:31:19;;;;;;;1.73;1.63;;;;;;;21.06;52.24;100605.81;4990966;28;20381;-59
2023/07/23 07:33:44;;;;;;;1.63;1.52;;;;;;;21.06;52.50;100600.41;4991226;28;20042;-60
2023/07/23 07:36:09;;;;;;;3.00;1.80;;;;;;;21.07;52.08;100612.06;4993567;28;20034;-59
2023/07/23 07:38:35;;;;;;;3.10;1.88;;;;;;;21.07;52.55;100606.66;4993189;28;20309;-59
2023/07/23 07:41:01;;;;;;;1.90;1.75;;;;;;;21.07;52.22;100606.66;4993153;28;20034;-59
2023/07/23 07:43:26;;;;;;;2.03;1.83;;;;;;;21.05;52.37;100603.28;4993871;28;20096;-59
2023/07/23 07:45:54;;;;;;;2.10;1.85;;;;;;;21.06;52.41;100603.13;4991451;28;20038;-60
2023/07/23 07:48:20;;;;;;;2.28;1.88;;;;;;;21.05;52.07;100603.28;4992148;28;20102;-58
2023/07/23 07:50:56;;;;;;;2.15;1.75;;;;;;;21.05;52.63;100606.81;4993717;28;20105;-59
2023/07/23 07:53:21;;;;;;;1.63;1.52;;;;;;;21.05;52.31;100601.41;4996783;28;20030;-59
2023/07/23 07:55:47;;;;;;;2.15;1.80;;;;;;;21.06;52.16;100605.81;4992719;28;20042;-59
2023/07/23 07:58:13;;;;;;;1.65;1.55;;;;;;;21.06;52.25;100597.69;4996411;28;20061;-59
2023/07/23 08:00:40;;;;;;;2.17;1.98;;;;;;;21.05;52.39;100597.88;5007694;28;20377;-59
2023/07/23 08:03:06;;;;;;;1.70;1.60;;;;;;;21.05;52.08;100600.56;4995224;28;20124;-60
2023/07/23 08:05:31;;;;;;;2.75;1.90;;;;;;;21.05;52.37;100598.69;4995518;28;20038;-59
2023/07/23 08:07:58;;;;;;;2.15;1.52;;;;;;;21.05;52.28;100601.41;4995024;28;20038;-59
2023/07/23 08:10:24;;;;;;;1.90;1.80;;;;;;;21.05;52.45;100606.81;4993829;28;20085;-59
2023/07/23 08:12:50;;;;;;;1.83;1.73;;;;;;;21.06;52.13;100615.81;4990033;28;20678;-59
2023/07/23 08:15:16;;;;;;;1.73;1.63;;;;;;;21.05;52.43;100609.53;4992335;28;20031;-59
2023/07/23 08:17:42;;;;;;;1.63;1.52;;;;;;;21.04;52.12;100599.75;4990965;28;20042;-59
2023/07/23 08:20:08;;;;;;;1.83;1.60;;;;;;;21.05;52.56;100600.56;4992496;28;20030;-59
2023/07/23 08:22:34;;;;;;;2.03;1.83;;;;;;;21.06;52.37;100602.28;4991377;28;20038;-59
2023/07/23 08:25:00;;;;;;;2.00;1.80;;;;;;;21.05;52.37;100609.53;4989842;28;20471;-59
2023/07/23 08:27:27;;;;;;;1.90;1.70;;;;;;;21.05;52.23;100609.53;4992899;28;20034;-59
2023/07/23 08:29:52;;;;;;;1.95;1.83;;;;;;;21.06;52.15;100600.41;4989600;28;20022;-59
2023/07/23 08:32:19;;;;;;;1.77;1.67;;;;;;;21.05;52.54;100601.41;4991027;28;20041;-59
2023/07/23 08:34:45;;;;;;;2.13;1.85;;;;;;;21.05;52.61;100593.28;4989706;28;20108;-59
2023/07/23 08:37:12;;;;;;;1.77;1.67;;;;;;;21.04;52.23;100597.03;4993630;28;20085;-59
2023/07/23 08:39:37;;;;;;;2.38;1.80;;;;;;;21.05;52.17;100604.13;4972788;28;20073;-59
2023/07/23 08:42:46;;;;;;;2.08;1.70;;;;;;;21.07;52.60;100601.25;4990040;28;20610;-59
2023/07/23 08:45:30;;;;;;;3.00;1.70;;;;;;;21.05;52.23;100596.00;4997082;28;20034;-60
2023/07/23 08:48:16;;;;;;;2.05;1.67;;;;;;;21.08;52.60;100597.53;4988384;28;20460;-59
2023/07/23 08:50:44;;;;;;;1.48;1.38;;;;;;;21.05;52.66;100600.56;4991708;28;20041;-60
2023/07/23 08:53:11;;;;;;;1.92;1.73;;;;;;;21.05;52.20;100614.09;4991009;28;20100;-59
2023/07/23 08:55:40;;;;;;;1.75;1.65;;;;;;;21.05;52.37;100598.69;4992178;28;20034;-59
2023/07/23 08:58:06;;;;;;;1.80;1.70;;;;;;;21.04;52.58;100607.84;4995919;28;20463;-59
2023/07/23 09:00:33;;;;;;;1.88;1.70;;;;;;;21.04;52.67;100598.91;4995956;28;20042;-59
2023/07/23 09:03:03;;;;;;;2.60;1.80;;;;;;;21.04;52.32;100599.75;4994316;28;20329;-59
2023/07/23 09:05:29;;;;;;;2.65;1.77;;;;;;;21.05;52.23;100608.69;4991257;28;20093;-59
2023/07/23 09:07:54;;;;;;;1.35;1.25;;;;;;;21.04;52.79;100610.56;4980999;28;20056;-59
2023/07/23 09:10:20;;;;;;;1.90;1.70;;;;;;;21.04;52.44;100613.28;4991607;28;20026;-59
2023/07/23 09:12:45;;;;;;;1.70;1.60;;;;;;;21.05;52.68;100606.00;4992039;28;20034;-59
2023/07/23 09:15:13;;;;;;;2.13;1.70;;;;;;;21.04;52.50;100605.16;4995682;28;20037;-59
2023/07/23 09:17:38;;;;;;;1.90;1.80;;;;;;;21.04;52.35;100607.84;4992753;28;20030;-59
2023/07/23 09:20:09;;;;;;;1.70;1.60;;;;;;;21.04;52.80;100602.44;4990952;28;20038;-59
2023/07/23 09:22:34;;;;;;;1.70;1.60;;;;;;;21.05;52.50;100606.81;4988922;28;20720;-59
2023/07/23 09:25:02;;;;;;;2.22;1.50;;;;;;;21.04;52.72;100607.84;4985907;28;20137;-59
2023/07/23 09:27:40;;;;;;;1.83;1.70;;;;;;;21.05;52.81;100612.25;4985492;28;20109;-59
2023/07/23 09:30:06;;;;;;;1.60;1.50;;;;;;;21.04;52.80;100610.56;4987144;28;20053;-59
2023/07/23 09:32:31;;;;;;;1.70;1.60;;;;;;;21.05;52.74;100614.09;4986570;28;20030;-58
2023/07/23 09:34:58;;;;;;;2.15;1.95;;;;;;;21.05;52.82;100616.81;4994474;28;20047;-59
2023/07/23 09:37:27;;;;;;;1.80;1.70;;;;;;;21.04;52.71;100612.44;4973951;28;20037;-59
2023/07/23 09:39:56;;;;;;;1.90;1.55;;;;;;;21.04;52.58;100623.25;4986656;28;20404;-59
2023/07/23 09:42:22;;;;;;;1.80;1.70;;;;;;;21.05;52.50;100616.81;4986978;28;20555;-58
2023/07/23 09:44:48;;;;;;;1.88;1.73;;;;;;;21.04;52.49;100623.25;4952557;28;20176;-59
2023/07/23 09:47:14;;;;;;;1.85;1.50;;;;;;;21.05;52.64;100614.94;4997019;28;20025;-59
2023/07/23 09:49:42;;;;;;;1.70;1.50;;;;;;;21.04;52.78;100613.28;4985212;28;20041;-58
2023/07/23 09:52:08;;;;;;;1.70;1.60;;;;;;;21.04;52.37;100615.97;4987960;28;20029;-59
2023/07/23 09:54:37;;;;;;;1.48;1.38;;;;;;;21.04;52.36;100621.41;4991016;28;20049;-58
2023/07/23 09:57:03;;;;;;;2.08;1.38;;;;;;;21.04;52.82;100615.16;4989211;28;20044;-59
2023/07/23 09:59:30;;;;;;;1.55;1.45;;;;;;;21.04;52.62;100612.44;4989479;28;20053;-59
2023/07/23 10:01:56;;;;;;;1.90;1.45;;;;;;;21.04;52.80;100623.25;4991796;28;20030;-59
2023/07/23 10:04:22;;;;;;;2.45;1.60;;;;;;;21.03;52.37;100614.28;4990575;28;20045;-59
2023/07/23 10:06:48;;;;;;;1.55;1.45;;;;;;;21.04;52.38;100623.25;4989787;28;20065;-58
2023/07/23 10:09:15;;;;;;;1.85;1.73;;;;;;;21.04;52.70;100623.25;4996811;28;20483;-59
2023/07/23 10:11:41;;;;;;;1.67;1.58;;;;;;;21.03;52.38;100619.69;4989071;28;20046;-59
2023/07/23 10:14:06;;;;;;;1.70;1.60;;;;;;;21.04;52.68;100625.97;4994439;28;20110;-59
2023/07/23 10:16:44;;;;;;;1.45;1.35;;;;;;;21.05;52.54;100623.06;4994475;28;20190;-59
2023/07/23 10:19:10;;;;;;;1.52;1.23;;;;;;;21.03;52.96;100622.41;4987294;28;20030;-58
2023/07/23 10:21:36;;;;;;;1.92;1.75;;;;;;;21.04;52.52;100629.50;4993977;28;20116;-59
2023/07/23 10:24:06;;;;;;;1.75;1.50;;;;;;;21.04;52.95;100634.09;4984409;28;20034;-59
2023/07/23 10:26:42;;;;;;;1.40;1.30;;;;;;;21.04;52.52;100624.09;4988870;28;20393;-58
2023/07/23 10:29:11;;;;;;;1.35;1.25;;;;;;;21.03;52.69;100632.38;4989561;28;20401;-59
2023/07/23 10:31:38;;;;;;;2.33;1.60;;;;;;;21.03;52.94;100633.22;4996979;28;20037;-59
2023/07/23 10:34:22;;;;;;;1.70;1.60;;;;;;;21.05;52.53;100633.91;4996675;28;20049;-59
2023/07/23 10:37:24;;;;;;;1.70;1.60;;;;;;;21.04;52.89;100629.50;4989545;28;20049;-59
2023/07/23 10:39:52;;;;;;;1.50;1.40;;;;;;;21.04;53.01;100636.78;4988582;28;20030;-59
2023/07/23 10:42:36;;;;;;;2.53;1.50;;;;;;;21.05;52.74;100636.59;4987660;28;20068;-59
2023/07/23 10:45:17;;;;;;;1.60;1.27;;;;;;;21.06;52.85;100634.75;4975236;28;20088;-57
2023/07/23 10:48:00;;;;;;;1.60;1.50;;;;;;;21.05;52.88;100630.34;4988488;28;20432;-59
2023/07/23 10:50:29;;;;;;;1.52;1.42;;;;;;;21.03;53.09;100629.69;5000471;28;20293;-59
2023/07/23 10:53:05;;;;;;;2.03;1.42;;;;;;;21.05;53.00;100633.91;4994597;28;20033;-58
2023/07/23 10:55:47;;;;;;;1.63;1.52;;;;;;;21.04;53.08;100629.50;4994827;28;20551;-58
2023/07/23 10:58:15;;;;;;;2.60;1.48;;;;;;;21.02;52.86;100630.72;4982285;28;20066;-58
2023/07/23 11:00:42;;;;;;;1.45;1.33;;;;;;;21.01;52.90;100632.56;4993309;28;20026;-59
2023/07/23 11:03:13;;;;;;;1.52;1.40;;;;;;;21.02;53.01;100634.25;4995278;28;20515;-59
2023/07/23 11:05:40;;;;;;;3.03;1.20;;;;;;;21.03;53.24;100627.81;4992388;28;20042;-59
2023/07/23 11:08:19;;;;;;;1.75;1.60;;;;;;;21.03;53.23;100624.28;5001727;28;20531;-59
2023/07/23 11:10:55;;;;;;;1.52;1.42;;;;;;;21.03;53.23;100622.41;4997883;28;20037;-59
2023/07/23 11:13:21;;;;;;;1.25;1.15;;;;;;;21.04;53.19;100636.78;4995383;28;20068;-58
2023/07/23 11:15:47;;;;;;;1.45;1.35;;;;;;;21.02;53.21;100628.00;4997441;28;20048;-58
2023/07/23 11:18:13;;;;;;;1.48;1.38;;;;;;;21.03;52.75;100626.97;4997379;28;20476;-59
2023/07/23 11:20:45;;;;;;;1.23;1.13;;;;;;;21.03;52.88;100622.41;4991938;28;20029;-59
2023/07/23 11:23:11;;;;;;;1.48;1.38;;;;;;;21.02;53.09;100626.13;4995083;28;20029;-59